Terminal Aerodrome Forecast
Issued by NWS

Home | Current Version | Previous Version | Text Only | Print | Product List | Glossary On
Versions: 1 2 3 4 5 6 7 8 9 10 11 12 13 14 15 16 17
000
FTPQ31 PGUM 290530
TAFGUM
TAF

TAF
PGRO 290530Z 2906/3006 12011KT 6SM SHRA VCTS SCT012CB SCT025 OVC090
      TEMPO 2906/2910 12015G25KT 2SM +SHRA SCT007 OVC012
     FM291100 08011KT P6SM VCSH SCT012 SCT030 BKN120=

USA.gov is the U.S. government's official web portal to all federal, state and local government web resources and services.